WetterOnline ( https://www.wetteronline.de )

Wetter aktuell Ör

Aktuelles Wetter: Satenas (54m)

6-stündlich | Neueste Meldungen
Ortszeit Temperatur Wetter
So, 09.05. 14:00 8.9° C leichter Regen
So, 09.05. 8:00 5.1° C leichter Regen
So, 09.05. 2:00 4.9° C wolkig
Sa, 08.05. 20:00 9.2° C wolkig
Sa, 08.05. 14:00 11.3° C wolkenlos
Sa, 08.05. 8:00 5.8° C wolkenlos
Sa, 08.05. 2:00 0.3° C wolkenlos
Fr, 07.05. 20:00 6.6° C bewölkt
Ortszeit Temperatur Wetter
So, 09.05. 16:20 12° C bedeckt
So, 09.05. 16:00 11.0° C bedeckt
So, 09.05. 15:50 11° C bedeckt
So, 09.05. 15:20 10° C Sprühregen
So, 09.05. 15:00 9.1° C leichter Regen
So, 09.05. 14:50 9° C leichter Regen
So, 09.05. 14:20 9° C leichter Regen
So, 09.05. 14:00 8.9° C leichter Regen
So, 09.05. 13:20 8° C leichter Regen
So, 09.05. 13:00 8.0° C leichter Regen
Ortszeit Relative Feuchte Sichtweite
So, 09.05. 14:00 100% 5.0 km
So, 09.05. 8:00 97% 13 km
So, 09.05. 2:00 91% 50 km
Sa, 08.05. 20:00 67% 45 km
Sa, 08.05. 14:00 61% 35 km
Sa, 08.05. 8:00 98% 35 km
Sa, 08.05. 2:00 99% 35 km
Fr, 07.05. 20:00 78% 45 km
Ortszeit Relative Feuchte Sichtweite
So, 09.05. 16:20 100% >10 km
So, 09.05. 16:00 100% 14 km
So, 09.05. 15:50 100% >10 km
So, 09.05. 15:20 100% >10 km
So, 09.05. 15:00 100% 7 km
So, 09.05. 14:50 100% 4.6 km
So, 09.05. 14:20 100% 4.0 km
So, 09.05. 14:00 100% 5.0 km
So, 09.05. 13:20 100% >10 km
So, 09.05. 13:00 100% 10 km
Ortszeit Niederschlagsmenge Niederschlagsart
So, 09.05. 14:00 2 l/m2 in 6 Std. Regenschauer
So, 09.05. 8:00 0.9 l/m2 in 12 Std. Sprühregen
So, 09.05. 2:00 0.0 l/m2 in 6 Std. -
Sa, 08.05. 20:00 0.4 l/m2 in 12 Std. -
Sa, 08.05. 14:00 0.4 l/m2 in 6 Std. Regenschauer
Sa, 08.05. 8:00 0.0 l/m2 in 12 Std. -
Sa, 08.05. 2:00 0.0 l/m2 in 6 Std. -
Fr, 07.05. 20:00 0.0 l/m2 in 12 Std. -
Ortszeit Niederschlagsmenge Niederschlagsart
So, 09.05. 16:20 keine Meldung -
So, 09.05. 16:00 0.1 l/m2 in 1 Std. Regen
So, 09.05. 15:50 keine Meldung -
So, 09.05. 15:20 keine Meldung -
So, 09.05. 15:00 0.3 l/m2 in 1 Std. Regen
So, 09.05. 14:50 keine Meldung -
So, 09.05. 14:20 keine Meldung -
So, 09.05. 14:00 0.9 l/m2 in 1 Std. Regenschauer
So, 09.05. 13:20 keine Meldung -
So, 09.05. 13:00 0.8 l/m2 in 1 Std. Regenschauer
Ortszeit Stärke Spitze Richtung
km/h Bft. km/h Grad Sektor
So, 09.05. 14:00 18 3 - 150° SO
So, 09.05. 8:00 22 4 - 120° SO
So, 09.05. 2:00 11 2 - 140° SO
Sa, 08.05. 20:00 18 3 - 220° SW
Sa, 08.05. 14:00 25 4 - 240° SW
Sa, 08.05. 8:00 11 2 - 200° S
Sa, 08.05. 2:00 11 2 - 190° S
Fr, 07.05. 20:00 7 2 - 260° W
Ortszeit Stärke Spitze Richtung
km/h Bft. km/h Grad Sektor
So, 09.05. 16:20 17 3 - 180° S
So, 09.05. 16:00 14 3 22 180° S
So, 09.05. 15:50 15 3 - 180° S
So, 09.05. 15:20 13 3 - 160° S
So, 09.05. 15:00 14 3 25 150° SO
So, 09.05. 14:50 17 3 - 150° SO
So, 09.05. 14:20 19 3 - 150° SO
So, 09.05. 14:00 18 3 22 150° SO
So, 09.05. 13:20 17 3 - 140° SO
So, 09.05. 13:00 18 3 25 140° SO
Ortszeit Untergrenze Bedeckung Gattung
total tief tief mittel hoch
So, 09.05. 14:00 210 m 8/8 8/8 - - -
So, 09.05. 8:00 600 m 8/8 8/8 - - -
So, 09.05. 2:00 4200 m 6/8 6/8 - - -
Sa, 08.05. 20:00 1500 m 5/8 5/8 - - -
Sa, 08.05. 14:00 - 0/8 0/8 - - -
Sa, 08.05. 8:00 - 0/8 0/8 - - -
Sa, 08.05. 2:00 - 0/8 0/8 - - -
Fr, 07.05. 20:00 2100 m 7/8 7/8 - - -
Ortszeit Bedeckungsgrad in Achtel und Wolkenuntergrenze
So, 09.05. 16:20 8(300m)
So, 09.05. 16:00 4(240m) 8(300m)
So, 09.05. 15:50 5-7(210m) 8(300m)
So, 09.05. 15:20 8(210m)
So, 09.05. 15:00 5(180m) 7(270m) 8(360m)
So, 09.05. 14:50 3-4(180m) 5-7(270m) 8(360m)
So, 09.05. 14:20 5-7(180m) 5-7(240m) 8(360m)
So, 09.05. 14:00 4(210m) 8(360m)
So, 09.05. 13:20 3-4(270m) 8(420m)
So, 09.05. 13:00 5(300m) 8(450m)
Ortszeit Luftdruck NN (hPa) Tendenz (hPa in 3 Std.)
So, 09.05. 14:00 1003 - 1,2
So, 09.05. 8:00 1007 - 1,5
So, 09.05. 2:00 1011 - 0,5
Sa, 08.05. 20:00 1012 + 0,5
Sa, 08.05. 14:00 1011 0,0
Sa, 08.05. 8:00 1010 + 0,5
Sa, 08.05. 2:00 1010 + 0,6
Fr, 07.05. 20:00 1008 + 0,9
Ortszeit Luftdruck NN (hPa) Tendenz (hPa in 3 Std.)
So, 09.05. 16:20 1002 keine Meldung
So, 09.05. 16:00 1003 - 1,0
So, 09.05. 15:50 1002 keine Meldung
So, 09.05. 15:20 1002 keine Meldung
So, 09.05. 15:00 1003 - 1,3
So, 09.05. 14:50 1002 keine Meldung
So, 09.05. 14:20 1003 keine Meldung
So, 09.05. 14:00 1003 - 1,2
So, 09.05. 13:20 1003 keine Meldung
So, 09.05. 13:00 1004 - 1,4
Ortszeit Schneehöhe (cm)
So, 09.05. 14:00 -
So, 09.05. 8:00 -
So, 09.05. 2:00 -
Sa, 08.05. 20:00 -
Sa, 08.05. 14:00 -
Sa, 08.05. 8:00 -
Sa, 08.05. 2:00 -
Fr, 07.05. 20:00 -
Ortszeit Schneehöhe (cm)
So, 09.05. 16:20 -
So, 09.05. 16:00 -
So, 09.05. 15:50 -
So, 09.05. 15:20 -
So, 09.05. 15:00 -
So, 09.05. 14:50 -
So, 09.05. 14:20 -
So, 09.05. 14:00 -
So, 09.05. 13:20 -
So, 09.05. 13:00 -
Link zu dieser Seite / Seite empfehlen

Das Wetter in ...